Time;durP1;ratioP1;P1;durP2;ratioP2;P2;SDS_P1;SDS_P2;PMS_P1;PMS_P2;Temp;Humidity;BMP_temperature;BMP_pressure;BME280_temperature;BME280_humidity;BME280_pressure;Samples;Min_cycle;Max_cycle;Signal;HPM_P1;HPM_P2
2023/06/27 00:01:39;;;;;;;11.50;9.40;;;18.70;99.90;;;;;;5185676;28;20044;-70
2023/06/27 00:04:10;;;;;;;10.50;9.30;;;18.70;99.90;;;;;;5185538;28;20363;-71
2023/06/27 00:06:41;;;;;;;10.60;9.60;;;18.80;99.90;;;;;;5185408;28;20032;-71
2023/06/27 00:09:12;;;;;;;10.57;9.68;;;18.70;99.90;;;;;;5185523;28;20116;-71
2023/06/27 00:11:43;;;;;;;9.65;8.65;;;18.60;99.90;;;;;;5185190;28;20370;-71
2023/06/27 00:14:14;;;;;;;10.50;9.50;;;18.60;99.90;;;;;;5185154;28;20045;-72
2023/06/27 00:16:46;;;;;;;11.50;9.05;;;18.70;99.90;;;;;;5185331;28;20038;-71
2023/06/27 00:19:17;;;;;;;14.13;10.13;;;18.70;99.90;;;;;;5185394;28;20026;-70
2023/06/27 00:21:47;;;;;;;10.25;9.02;;;18.70;99.90;;;;;;5185349;28;20382;-72
2023/06/27 00:24:18;;;;;;;10.63;9.65;;;18.70;99.90;;;;;;5185343;28;20018;-71
2023/06/27 00:26:49;;;;;;;9.85;8.95;;;18.60;99.90;;;;;;5185262;28;20029;-70
2023/06/27 00:29:20;;;;;;;11.98;9.02;;;18.60;99.90;;;;;;5185298;28;20026;-71
2023/06/27 00:31:51;;;;;;;10.88;9.43;;;18.50;99.90;;;;;;5185195;28;20026;-71
2023/06/27 00:34:22;;;;;;;12.82;10.20;;;18.40;99.90;;;;;;5185084;28;20096;-71
2023/06/27 00:36:53;;;;;;;10.98;8.52;;;18.30;99.90;;;;;;5185162;28;20034;-72
2023/06/27 00:39:24;;;;;;;9.45;8.52;;;18.50;99.90;;;;;;5185044;28;20034;-70
2023/06/27 00:41:55;;;;;;;9.68;8.80;;;18.50;99.90;;;;;;5184639;28;20046;-71
2023/06/27 00:44:25;;;;;;;10.32;9.32;;;18.40;99.90;;;;;;5185064;28;20037;-71
2023/06/27 00:46:58;;;;;;;14.68;8.65;;;18.40;99.90;;;;;;5185424;28;20402;-70
2023/06/27 00:49:28;;;;;;;9.73;8.77;;;18.40;99.90;;;;;;5185000;28;20117;-71
2023/06/27 00:51:59;;;;;;;13.02;8.20;;;18.30;99.90;;;;;;5185113;28;20109;-71
2023/06/27 00:54:30;;;;;;;9.32;8.43;;;18.30;99.90;;;;;;5184910;28;20084;-72
2023/06/27 00:57:02;;;;;;;9.48;8.57;;;18.30;99.90;;;;;;5185288;28;20034;-70
2023/06/27 00:59:36;;;;;;;9.25;8.35;;;18.30;99.90;;;;;;5185332;28;20045;-72
2023/06/27 01:02:08;;;;;;;10.20;9.13;;;18.30;99.90;;;;;;5185063;28;20057;-71
2023/06/27 01:04:39;;;;;;;11.27;8.98;;;18.30;99.90;;;;;;5187770;28;20018;-71
2023/06/27 01:07:22;;;;;;;9.88;8.90;;;18.30;99.90;;;;;;5188969;28;20045;-71
2023/06/27 01:09:59;;;;;;;11.57;9.27;;;18.20;99.90;;;;;;5188645;28;20351;-72
2023/06/27 01:13:09;;;;;;;9.60;8.60;;;18.30;99.90;;;;;;5188737;28;20120;-71
2023/06/27 01:15:40;;;;;;;10.13;9.30;;;18.20;99.90;;;;;;5184442;28;20058;-71
2023/06/27 01:18:12;;;;;;;12.05;8.63;;;18.10;99.90;;;;;;5188648;28;20485;-71
2023/06/27 01:20:44;;;;;;;10.93;9.40;;;18.10;99.90;;;;;;5188622;28;20037;-71
2023/06/27 01:24:06;;;;;;;10.40;8.05;;;18.10;99.90;;;;;;5188509;28;20029;-71
2023/06/27 01:26:36;;;;;;;10.95;9.85;;;18.00;99.90;;;;;;5105911;29;20039;-71
2023/06/27 01:29:07;;;;;;;12.38;9.25;;;18.00;99.90;;;;;;5105974;29;20398;-70
2023/06/27 01:32:03;;;;;;;10.70;9.77;;;18.00;99.90;;;;;;5105854;29;20043;-71
2023/06/27 01:34:57;;;;;;;12.15;10.73;;;18.00;99.90;;;;;;5105925;29;20039;-71
2023/06/27 01:37:32;;;;;;;16.10;9.85;;;17.90;99.90;;;;;;5105559;29;20035;-71
2023/06/27 01:40:08;;;;;;;11.40;9.32;;;18.00;99.90;;;;;;5105560;29;20032;-71
2023/06/27 01:42:46;;;;;;;10.48;9.40;;;18.00;99.90;;;;;;5105775;29;20059;-71
2023/06/27 01:45:18;;;;;;;10.45;8.63;;;18.00;99.90;;;;;;5105772;29;20048;-71
2023/06/27 01:47:49;;;;;;;11.00;8.88;;;18.00;99.90;;;;;;5105555;29;20023;-72
2023/06/27 01:50:20;;;;;;;18.52;9.73;;;17.80;99.90;;;;;;5105388;29;20040;-71
2023/06/27 01:52:51;;;;;;;11.75;10.32;;;17.90;99.90;;;;;;5105534;29;20393;-71
2023/06/27 01:55:22;;;;;;;9.50;8.65;;;17.80;99.90;;;;;;5105273;29;20043;-70
2023/06/27 01:57:53;;;;;;;9.82;8.40;;;17.90;99.90;;;;;;5172109;28;20026;-72
2023/06/27 02:00:24;;;;;;;11.18;9.80;;;17.80;99.90;;;;;;5187684;28;20149;-72
2023/06/27 02:02:55;;;;;;;9.90;9.00;;;17.80;99.90;;;;;;5187805;28;20026;-71
2023/06/27 02:05:26;;;;;;;10.20;9.20;;;17.90;99.90;;;;;;5187843;28;20026;-71
2023/06/27 02:07:57;;;;;;;11.23;8.68;;;17.70;99.90;;;;;;5187708;28;20152;-72
2023/06/27 02:10:28;;;;;;;9.80;8.77;;;17.70;99.90;;;;;;5187305;28;20037;-71
2023/06/27 02:13:01;;;;;;;8.50;7.70;;;17.70;99.90;;;;;;5187411;28;20172;-71
2023/06/27 02:15:32;;;;;;;9.07;8.27;;;17.70;99.90;;;;;;5186547;28;20117;-71
2023/06/27 02:18:04;;;;;;;11.50;8.23;;;17.70;99.90;;;;;;5187408;28;20029;-71
2023/06/27 02:20:35;;;;;;;8.30;7.45;;;17.60;99.90;;;;;;5187231;28;20034;-71
2023/06/27 02:23:05;;;;;;;9.50;7.82;;;17.60;99.90;;;;;;5187429;28;20026;-71
2023/06/27 02:25:36;;;;;;;8.55;7.47;;;17.70;99.90;;;;;;5187370;28;20097;-71
2023/06/27 02:28:07;;;;;;;9.75;7.38;;;17.60;99.90;;;;;;5187229;28;20426;-71
2023/06/27 02:30:38;;;;;;;7.60;6.93;;;17.60;99.90;;;;;;5187472;28;20378;-72
2023/06/27 02:33:09;;;;;;;8.18;7.15;;;17.60;99.90;;;;;;5187529;28;20032;-71
2023/06/27 02:35:40;;;;;;;8.18;7.25;;;17.50;99.90;;;;;;5169563;28;20398;-71
2023/06/27 02:38:11;;;;;;;8.75;6.60;;;17.50;99.90;;;;;;5187130;28;20022;-72
2023/06/27 02:40:41;;;;;;;7.95;7.10;;;17.50;99.90;;;;;;5186679;28;20038;-72
2023/06/27 02:43:12;;;;;;;7.60;6.78;;;17.50;99.90;;;;;;5186917;28;20128;-72
2023/06/27 02:45:43;;;;;;;7.90;7.20;;;17.40;99.90;;;;;;5186873;28;20116;-71
2023/06/27 02:48:14;;;;;;;8.05;7.30;;;17.50;99.90;;;;;;5186816;28;20033;-70
2023/06/27 02:50:49;;;;;;;7.78;7.07;;;17.40;99.90;;;;;;5186845;28;20496;-71
2023/06/27 02:53:20;;;;;;;8.38;6.93;;;17.40;99.90;;;;;;5186754;28;20036;-71
2023/06/27 02:55:50;;;;;;;8.15;7.05;;;17.40;99.90;;;;;;5186603;28;20039;-72
2023/06/27 02:58:21;;;;;;;10.15;7.28;;;17.40;99.90;;;;;;5186650;28;20030;-71
2023/06/27 03:00:52;;;;;;;9.15;6.85;;;17.30;99.90;;;;;;5186657;28;20121;-71
2023/06/27 03:03:23;;;;;;;7.97;7.38;;;17.40;99.90;;;;;;5186504;28;20030;-72
2023/06/27 03:05:54;;;;;;;7.90;7.10;;;17.40;99.90;;;;;;5186511;28;20373;-72
2023/06/27 03:08:25;;;;;;;8.98;7.75;;;17.30;99.90;;;;;;5186489;28;20120;-71
2023/06/27 03:10:56;;;;;;;8.77;7.88;;;17.40;99.90;;;;;;5186253;28;20024;-71
2023/06/27 03:13:27;;;;;;;9.35;7.60;;;17.40;99.90;;;;;;5186312;28;20120;-71
2023/06/27 03:15:58;;;;;;;9.45;8.32;;;17.20;99.90;;;;;;5186142;28;20112;-71
2023/06/27 03:18:28;;;;;;;9.02;8.20;;;17.30;99.90;;;;;;5186310;28;20410;-72
2023/06/27 03:20:59;;;;;;;8.65;7.78;;;17.40;99.90;;;;;;5186512;28;20390;-72
2023/06/27 03:23:30;;;;;;;8.73;7.93;;;17.50;99.90;;;;;;5186313;28;20026;-72
2023/06/27 03:26:01;;;;;;;8.77;7.97;;;17.50;99.90;;;;;;5186112;28;20030;-72
2023/06/27 03:28:32;;;;;;;9.02;8.30;;;17.50;99.90;;;;;;5186131;28;20026;-71
2023/06/27 03:31:03;;;;;;;7.85;7.15;;;17.50;99.90;;;;;;5186260;28;20033;-72
2023/06/27 03:33:33;;;;;;;8.52;7.68;;;17.70;99.90;;;;;;5186473;28;20057;-71
2023/06/27 03:36:04;;;;;;;9.43;8.48;;;17.70;99.90;;;;;;5186145;28;20603;-71
2023/06/27 03:38:35;;;;;;;14.45;7.55;;;17.70;99.90;;;;;;5186147;28;20037;-71
2023/06/27 03:41:06;;;;;;;10.80;7.25;;;17.70;99.90;;;;;;5185550;28;20121;-71
2023/06/27 03:43:37;;;;;;;8.70;7.82;;;17.80;99.90;;;;;;5185940;28;20120;-71
2023/06/27 03:46:12;;;;;;;9.50;7.60;;;17.90;99.90;;;;;;5186024;28;20014;-71
2023/06/27 03:48:43;;;;;;;11.30;7.78;;;17.80;99.90;;;;;;5185771;28;20094;-71
2023/06/27 03:51:13;;;;;;;8.60;7.72;;;17.70;99.90;;;;;;5185760;28;20518;-71
2023/06/27 03:53:44;;;;;;;8.40;7.30;;;18.00;99.90;;;;;;5185809;28;20040;-71
2023/06/27 03:56:16;;;;;;;8.90;7.10;;;18.00;99.90;;;;;;5185770;28;20397;-71
2023/06/27 03:58:47;;;;;;;7.75;7.05;;;18.10;99.90;;;;;;5185717;28;20385;-71
2023/06/27 04:01:18;;;;;;;7.47;6.85;;;18.00;99.90;;;;;;5185646;28;20022;-72
2023/06/27 04:03:49;;;;;;;9.57;7.13;;;18.20;99.90;;;;;;5185619;28;20029;-71
2023/06/27 04:06:19;;;;;;;8.57;7.85;;;18.30;99.90;;;;;;5185619;28;20030;-72
2023/06/27 04:08:52;;;;;;;9.00;8.10;;;18.20;99.90;;;;;;5185382;28;20049;-71
2023/06/27 04:11:23;;;;;;;9.05;8.35;;;18.30;99.90;;;;;;5185187;28;20092;-71
2023/06/27 04:13:56;;;;;;;8.88;8.18;;;18.30;99.90;;;;;;5185291;28;20084;-72
2023/06/27 04:16:27;;;;;;;9.00;8.20;;;18.50;99.90;;;;;;5185290;28;20145;-72
2023/06/27 04:18:58;;;;;;;9.13;8.15;;;18.60;99.90;;;;;;5185335;28;20018;-71
2023/06/27 04:21:29;;;;;;;8.98;8.07;;;18.50;99.90;;;;;;5185336;28;20030;-71
2023/06/27 04:24:00;;;;;;;10.57;7.18;;;18.60;99.90;;;;;;5185347;28;20399;-71
2023/06/27 04:26:31;;;;;;;8.73;6.65;;;18.70;99.90;;;;;;5185190;28;20044;-72
2023/06/27 04:29:02;;;;;;;8.05;7.13;;;18.80;99.90;;;;;;5185224;28;20065;-71
2023/06/27 04:31:33;;;;;;;9.98;6.93;;;18.90;99.90;;;;;;5185285;28;20553;-72
2023/06/27 04:34:04;;;;;;;8.52;7.00;;;19.00;99.90;;;;;;5185090;28;20097;-71
2023/06/27 04:36:36;;;;;;;8.05;7.32;;;19.20;99.90;;;;;;5185235;28;20046;-71
2023/06/27 04:39:09;;;;;;;8.23;6.50;;;19.10;99.90;;;;;;5187028;28;20363;-71
2023/06/27 04:41:39;;;;;;;8.32;7.63;;;19.40;99.90;;;;;;5188846;28;20058;-71
2023/06/27 04:44:10;;;;;;;8.50;7.75;;;19.60;99.90;;;;;;5189189;28;20049;-71
2023/06/27 04:46:41;;;;;;;10.77;8.35;;;19.70;99.90;;;;;;5189063;28;20478;-71
2023/06/27 04:49:12;;;;;;;11.27;9.88;;;19.70;99.90;;;;;;5189157;28;20022;-71
2023/06/27 04:51:43;;;;;;;12.35;11.23;;;19.90;99.90;;;;;;5189243;28;20084;-71
2023/06/27 04:54:14;;;;;;;12.27;10.70;;;20.00;99.90;;;;;;5189250;28;20034;-71
2023/06/27 04:56:45;;;;;;;10.13;9.27;;;20.00;99.90;;;;;;5189187;28;20037;-71
2023/06/27 04:59:17;;;;;;;11.50;9.90;;;20.10;99.90;;;;;;5188942;28;20374;-71
2023/06/27 05:01:48;;;;;;;11.25;10.18;;;20.40;99.90;;;;;;5188972;28;20030;-71
2023/06/27 05:04:19;;;;;;;12.18;11.00;;;20.40;99.90;;;;;;5188848;28;20049;-72
2023/06/27 05:06:51;;;;;;;11.05;10.07;;;20.50;99.90;;;;;;5188913;28;20382;-71
2023/06/27 05:09:22;;;;;;;10.18;9.15;;;20.80;99.90;;;;;;5188808;28;20014;-71
2023/06/27 05:11:53;;;;;;;10.48;9.65;;;20.80;99.90;;;;;;5188561;28;20018;-71
2023/06/27 05:14:24;;;;;;;10.95;9.85;;;21.10;99.90;;;;;;5188573;28;20038;-72
2023/06/27 05:16:55;;;;;;;11.57;9.60;;;21.30;99.90;;;;;;5188652;28;20507;-71
2023/06/27 05:19:26;;;;;;;13.20;9.30;;;21.80;99.90;;;;;;5188556;28;20026;-71
2023/06/27 05:21:57;;;;;;;11.40;8.80;;;21.90;99.90;;;;;;5188600;28;20018;-71
2023/06/27 05:24:28;;;;;;;14.23;8.77;;;21.90;99.90;;;;;;5188630;28;20037;-71
2023/06/27 05:26:59;;;;;;;10.23;8.90;;;22.10;99.90;;;;;;5188420;28;20097;-71
2023/06/27 05:29:30;;;;;;;9.82;8.10;;;22.20;99.90;;;;;;5188283;28;20042;-71
2023/06/27 05:32:00;;;;;;;11.20;7.28;;;22.30;99.90;;;;;;5188233;28;20029;-71
2023/06/27 05:34:31;;;;;;;12.13;8.30;;;22.30;99.90;;;;;;5188123;28;20425;-71
2023/06/27 05:37:02;;;;;;;10.55;7.82;;;22.60;99.90;;;;;;5188265;28;20022;-71
2023/06/27 05:39:33;;;;;;;10.40;7.78;;;22.80;99.90;;;;;;5188210;28;20413;-72
2023/06/27 05:42:04;;;;;;;12.95;9.07;;;22.90;99.90;;;;;;5187836;28;20049;-71
2023/06/27 05:44:35;;;;;;;11.40;8.30;;;23.00;99.90;;;;;;5188016;28;20506;-71
2023/06/27 05:47:06;;;;;;;11.95;9.10;;;23.00;99.90;;;;;;5187924;28;20028;-71
2023/06/27 05:49:37;;;;;;;10.52;9.50;;;23.00;99.90;;;;;;5187130;28;20359;-71
2023/06/27 05:52:07;;;;;;;10.30;9.55;;;22.90;99.90;;;;;;5187471;28;20056;-71
2023/06/27 05:54:38;;;;;;;10.30;7.90;;;22.80;99.90;;;;;;5187796;28;20030;-73
2023/06/27 05:57:10;;;;;;;11.85;8.82;;;23.00;99.90;;;;;;5187991;28;20070;-71
2023/06/27 05:59:41;;;;;;;13.88;7.93;;;22.90;99.90;;;;;;5187740;28;20524;-71
2023/06/27 06:02:11;;;;;;;7.82;7.13;;;23.00;99.90;;;;;;5187791;28;20026;-71
2023/06/27 06:04:42;;;;;;;8.93;7.07;;;23.00;99.90;;;;;;5187725;28;20029;-71
2023/06/27 06:07:14;;;;;;;9.63;6.88;;;23.40;99.90;;;;;;5187664;28;20391;-71
2023/06/27 06:09:44;;;;;;;12.68;8.75;;;23.50;99.90;;;;;;5187707;28;20103;-71
2023/06/27 06:12:15;;;;;;;9.93;8.88;;;23.70;99.90;;;;;;5187681;28;20034;-72
2023/06/27 06:14:46;;;;;;;9.38;8.48;;;23.90;99.90;;;;;;5187395;28;20038;-71
2023/06/27 06:17:17;;;;;;;13.10;9.48;;;24.00;99.90;;;;;;5187658;28;20065;-72
2023/06/27 06:19:48;;;;;;;10.98;9.82;;;24.30;99.90;;;;;;5187402;28;20113;-71
2023/06/27 06:22:19;;;;;;;11.55;10.38;;;24.30;99.90;;;;;;5187499;28;20037;-71
2023/06/27 06:24:50;;;;;;;12.55;11.40;;;24.50;99.90;;;;;;5187489;28;20478;-71
2023/06/27 06:27:21;;;;;;;12.50;11.43;;;24.40;99.90;;;;;;5187330;28;20117;-71
2023/06/27 06:29:52;;;;;;;12.38;11.02;;;24.50;99.90;;;;;;5187303;28;20156;-71
2023/06/27 06:32:23;;;;;;;12.93;10.60;;;24.60;99.90;;;;;;5187259;28;20125;-71
2023/06/27 06:34:54;;;;;;;9.85;8.93;;;24.60;99.90;;;;;;5187051;28;20022;-71
2023/06/27 06:37:25;;;;;;;8.73;7.90;;;24.60;99.90;;;;;;5187067;28;20037;-71
2023/06/27 06:39:55;;;;;;;9.75;8.75;;;24.70;99.90;;;;;;5186859;28;20017;-71
2023/06/27 06:42:26;;;;;;;12.05;8.93;;;24.80;99.90;;;;;;5186879;28;20529;-71
2023/06/27 06:44:58;;;;;;;11.07;9.80;;;24.90;99.90;;;;;;5187100;28;20022;-71
2023/06/27 06:47:29;;;;;;;9.85;8.80;;;24.80;99.90;;;;;;5187046;28;20370;-71
2023/06/27 06:50:00;;;;;;;9.15;8.25;;;24.80;99.90;;;;;;5186841;28;20029;-71
2023/06/27 06:52:31;;;;;;;10.27;9.32;;;25.10;99.90;;;;;;5186788;28;20129;-72
2023/06/27 06:55:02;;;;;;;11.95;10.95;;;25.10;99.90;;;;;;5186597;28;20065;-72
2023/06/27 06:57:33;;;;;;;14.20;13.00;;;24.90;99.90;;;;;;5186610;28;20025;-72
2023/06/27 07:00:04;;;;;;;13.27;11.98;;;25.00;99.90;;;;;;5186565;28;20022;-72
2023/06/27 07:02:35;;;;;;;12.18;11.05;;;25.10;99.90;;;;;;5186183;28;20030;-71
2023/06/27 07:05:07;;;;;;;9.50;8.05;;;25.20;99.90;;;;;;5186531;28;20553;-71
2023/06/27 07:07:37;;;;;;;8.55;7.75;;;25.30;99.90;;;;;;5186453;28;20026;-71
2023/06/27 07:10:09;;;;;;;8.68;7.82;;;25.50;99.90;;;;;;5185877;28;20030;-71
2023/06/27 07:12:40;;;;;;;8.25;7.28;;;25.60;99.90;;;;;;5186167;28;20034;-71
2023/06/27 07:15:11;;;;;;;9.02;7.43;;;25.70;99.90;;;;;;5186064;28;20038;-71
2023/06/27 07:17:42;;;;;;;11.45;8.02;;;25.60;99.90;;;;;;5186324;28;20486;-71
2023/06/27 07:20:13;;;;;;;10.23;8.10;;;25.70;99.90;;;;;;5186088;28;20165;-71
2023/06/27 07:22:44;;;;;;;10.55;7.93;;;25.70;99.90;;;;;;5186265;28;20033;-72
2023/06/27 07:25:15;;;;;;;9.13;8.32;;;25.70;99.90;;;;;;5186149;28;20037;-72
2023/06/27 07:27:46;;;;;;;9.82;8.38;;;25.70;99.90;;;;;;5186365;28;20065;-71
2023/06/27 07:30:17;;;;;;;10.32;9.32;;;25.90;99.90;;;;;;5186417;28;20022;-72
2023/06/27 07:32:47;;;;;;;12.02;9.20;;;25.90;99.90;;;;;;5186250;28;20022;-71
2023/06/27 07:35:18;;;;;;;12.07;8.60;;;25.90;99.90;;;;;;5186019;28;20040;-71
2023/06/27 07:37:49;;;;;;;10.48;9.15;;;25.70;99.90;;;;;;5186031;28;20022;-71
2023/06/27 07:40:20;;;;;;;10.20;8.13;;;25.60;99.90;;;;;;5185918;28;20116;-71
2023/06/27 07:42:51;;;;;;;8.73;7.93;;;25.70;99.90;;;;;;5185790;28;20062;-72
2023/06/27 07:45:22;;;;;;;9.00;8.10;;;26.00;99.90;;;;;;5185996;28;20053;-71
2023/06/27 07:47:53;;;;;;;8.93;8.13;;;26.10;99.90;;;;;;5185857;28;20068;-71
2023/06/27 07:50:24;;;;;;;9.25;8.32;;;26.20;99.90;;;;;;5185607;28;20026;-71
2023/06/27 07:52:55;;;;;;;8.65;7.13;;;26.40;99.90;;;;;;5185685;28;20082;-71
2023/06/27 07:55:26;;;;;;;9.48;7.30;;;26.30;99.90;;;;;;5185626;28;20034;-71
2023/06/27 07:57:57;;;;;;;7.63;6.50;;;26.20;99.90;;;;;;5185609;28;20109;-71
2023/06/27 08:00:27;;;;;;;9.32;7.50;;;26.40;99.90;;;;;;5185521;28;20038;-71
2023/06/27 08:02:58;;;;;;;8.07;7.25;;;26.30;99.90;;;;;;5185665;28;20030;-71
2023/06/27 08:05:31;;;;;;;9.55;8.65;;;26.40;99.90;;;;;;5185728;28;20033;-71
2023/06/27 08:08:02;;;;;;;11.40;10.40;;;26.60;99.90;;;;;;5185470;28;20033;-72
2023/06/27 08:10:33;;;;;;;12.05;10.88;;;26.60;99.90;;;;;;5185176;28;20084;-71
2023/06/27 08:13:04;;;;;;;14.70;13.43;;;26.70;99.90;;;;;;5184690;28;20036;-71
2023/06/27 08:15:35;;;;;;;19.33;17.92;;;26.70;99.90;;;;;;5185266;28;20137;-71
2023/06/27 08:18:06;;;;;;;19.30;17.52;;;26.70;99.90;;;;;;5185381;28;20088;-71
2023/06/27 08:20:37;;;;;;;16.80;15.43;;;26.60;99.90;;;;;;5185360;28;20022;-71
2023/06/27 08:23:08;;;;;;;13.70;12.48;;;26.80;99.90;;;;;;5185392;28;20378;-71
2023/06/27 08:25:39;;;;;;;12.38;11.32;;;27.00;99.90;;;;;;5185285;28;20075;-71
2023/06/27 08:28:09;;;;;;;10.80;9.80;;;26.90;99.90;;;;;;5185268;28;20025;-71
2023/06/27 08:30:41;;;;;;;9.90;8.70;;;26.90;99.90;;;;;;5185124;28;20113;-71
2023/06/27 08:33:12;;;;;;;9.15;8.25;;;26.50;99.90;;;;;;5185316;28;20432;-71
2023/06/27 08:35:43;;;;;;;9.50;7.50;;;26.80;99.90;;;;;;5185339;28;20034;-71
2023/06/27 08:38:14;;;;;;;8.57;7.47;;;26.90;99.90;;;;;;5185182;28;20068;-71
2023/06/27 08:40:49;;;;;;;9.95;8.18;;;27.00;99.90;;;;;;5184842;28;20363;-71
2023/06/27 08:43:20;;;;;;;8.20;7.50;;;27.20;99.90;;;;;;5167701;28;20133;-71
2023/06/27 08:45:54;;;;;;;8.55;7.70;;;27.20;99.90;;;;;;5185593;28;20033;-71
2023/06/27 08:48:25;;;;;;;9.38;8.10;;;27.30;99.90;;;;;;5185188;28;20076;-71
2023/06/27 08:50:57;;;;;;;9.60;8.32;;;27.20;99.90;;;;;;5185170;28;20374;-71
2023/06/27 08:53:30;;;;;;;10.02;8.52;;;27.00;99.90;;;;;;5185273;28;20025;-71
2023/06/27 08:56:07;;;;;;;9.57;8.60;;;27.20;99.90;;;;;;5185132;28;20088;-71
2023/06/27 08:58:46;;;;;;;12.48;8.45;;;27.10;99.90;;;;;;5185107;28;20083;-72
2023/06/27 09:01:17;;;;;;;8.70;7.93;;;26.80;99.90;;;;;;5185021;28;20470;-72
2023/06/27 09:03:48;;;;;;;8.55;7.85;;;26.70;99.90;;;;;;5185047;28;20480;-72
2023/06/27 09:06:19;;;;;;;10.27;8.27;;;26.90;99.90;;;;;;5184950;28;20026;-71
2023/06/27 09:08:50;;;;;;;9.65;8.10;;;26.90;99.90;;;;;;5184879;28;20080;-72
2023/06/27 09:11:24;;;;;;;8.35;7.40;;;27.00;99.90;;;;;;5184705;28;20053;-71
2023/06/27 09:13:54;;;;;;;9.27;8.25;;;27.30;99.90;;;;;;5184834;28;20053;-72
2023/06/27 09:16:25;;;;;;;9.68;8.88;;;27.30;99.90;;;;;;5184767;28;20034;-71
2023/06/27 09:18:56;;;;;;;10.60;9.52;;;27.10;99.90;;;;;;5184895;28;20018;-71
2023/06/27 09:21:31;;;;;;;10.68;9.63;;;26.90;99.90;;;;;;5184756;28;20378;-71
2023/06/27 09:24:07;;;;;;;9.60;8.85;;;27.00;99.90;;;;;;5185121;28;20065;-71
2023/06/27 09:26:38;;;;;;;10.00;9.18;;;27.10;99.90;;;;;;5188456;28;20117;-71
2023/06/27 09:29:09;;;;;;;10.50;9.50;;;27.20;99.90;;;;;;5188480;28;20112;-72
2023/06/27 09:31:40;;;;;;;10.57;9.75;;;27.60;99.90;;;;;;5188321;28;20063;-71
2023/06/27 09:34:11;;;;;;;9.98;9.10;;;27.50;99.90;;;;;;5188165;28;20049;-72
2023/06/27 09:36:42;;;;;;;9.30;8.50;;;27.60;99.90;;;;;;5188363;28;20038;-72
2023/06/27 09:39:12;;;;;;;8.35;7.50;;;27.70;99.90;;;;;;5188232;28;20386;-72
2023/06/27 09:41:46;;;;;;;8.27;7.43;;;27.60;99.90;;;;;;5187816;28;20053;-71
2023/06/27 09:44:19;;;;;;;7.68;6.88;;;27.80;99.90;;;;;;5188021;28;20026;-71
2023/06/27 09:46:54;;;;;;;7.20;6.10;;;27.80;99.90;;;;;;5188015;28;20047;-72
2023/06/27 09:49:30;;;;;;;10.00;7.03;;;27.90;99.90;;;;;;5187883;28;20033;-72
2023/06/27 09:52:04;;;;;;;8.18;7.32;;;27.90;99.90;;;;;;5187971;28;20057;-72
2023/06/27 09:54:43;;;;;;;7.97;7.18;;;27.90;99.90;;;;;;5187735;28;20459;-72
2023/06/27 09:57:16;;;;;;;9.35;7.22;;;28.00;99.90;;;;;;5187850;28;20034;-73
2023/06/27 09:59:47;;;;;;;10.55;7.85;;;27.60;99.90;;;;;;5187753;28;20108;-71
2023/06/27 10:02:18;;;;;;;8.38;7.68;;;28.00;99.90;;;;;;5187878;28;20092;-72
2023/06/27 10:04:48;;;;;;;8.23;7.43;;;28.10;99.90;;;;;;5187969;28;20377;-72
2023/06/27 10:07:20;;;;;;;8.02;7.25;;;28.20;99.90;;;;;;5187745;28;20132;-72
2023/06/27 10:09:51;;;;;;;7.93;7.32;;;28.20;99.90;;;;;;5187545;28;20099;-72
2023/06/27 10:12:23;;;;;;;10.32;6.70;;;28.30;99.90;;;;;;5187584;28;20030;-72
2023/06/27 10:14:56;;;;;;;8.80;7.38;;;28.30;99.90;;;;;;5187583;28;20056;-73
2023/06/27 10:17:29;;;;;;;8.05;6.85;;;28.30;99.90;;;;;;5187677;28;20083;-72
2023/06/27 10:20:00;;;;;;;8.07;6.97;;;28.30;99.90;;;;;;5187620;28;20053;-72
2023/06/27 10:22:34;;;;;;;9.45;8.63;;;28.50;99.90;;;;;;5187427;28;20018;-72
2023/06/27 10:25:06;;;;;;;11.27;10.48;;;28.40;99.90;;;;;;5187353;28;20033;-72
2023/06/27 10:27:38;;;;;;;12.07;11.05;;;28.30;99.90;;;;;;5187438;28;20022;-72
2023/06/27 10:30:36;;;;;;;12.18;11.18;;;28.30;99.90;;;;;;5187322;28;20033;-71
2023/06/27 10:33:09;;;;;;;12.45;11.20;;;28.30;99.90;;;;;;5149601;28;20034;-72
2023/06/27 10:35:50;;;;;;;10.88;9.82;;;28.20;99.90;;;;;;5186628;28;20034;-71
2023/06/27 10:38:21;;;;;;;11.02;10.00;;;28.00;99.90;;;;;;5187169;28;20398;-72
2023/06/27 10:41:07;;;;;;;11.00;10.10;;;28.40;99.90;;;;;;5186585;28;20045;-72
2023/06/27 10:43:54;;;;;;;12.05;10.95;;;28.50;99.90;;;;;;5187059;28;20041;-72
2023/06/27 10:46:26;;;;;;;12.27;11.30;;;28.60;99.90;;;;;;5186799;28;20034;-72
2023/06/27 10:49:03;;;;;;;12.65;11.52;;;28.60;99.90;;;;;;5186915;28;20010;-72
2023/06/27 10:51:41;;;;;;;12.20;11.07;;;28.60;99.90;;;;;;5186880;28;20038;-72
2023/06/27 10:54:15;;;;;;;11.98;10.95;;;28.50;99.90;;;;;;5186676;28;20010;-72
2023/06/27 10:56:59;;;;;;;11.63;10.73;;;28.60;99.90;;;;;;5186709;28;20037;-72
2023/06/27 10:59:34;;;;;;;12.57;11.48;;;28.60;99.90;;;;;;5186685;28;20064;-72
2023/06/27 11:02:07;;;;;;;12.20;11.30;;;28.60;99.90;;;;;;5186699;28;20386;-72
2023/06/27 11:04:43;;;;;;;11.50;10.55;;;28.50;99.90;;;;;;5186615;28;20022;-72
2023/06/27 11:07:17;;;;;;;11.90;10.27;;;28.60;99.90;;;;;;5186555;28;20036;-71
2023/06/27 11:09:55;;;;;;;12.38;11.40;;;28.50;99.90;;;;;;5186425;28;20021;-72
2023/06/27 11:12:33;;;;;;;11.37;10.30;;;28.60;99.90;;;;;;5186784;28;20026;-72
2023/06/27 11:15:04;;;;;;;10.57;9.57;;;28.60;99.90;;;;;;5186410;28;20696;-72
2023/06/27 11:17:39;;;;;;;8.50;7.80;;;28.80;99.90;;;;;;5186656;28;20034;-72
2023/06/27 11:20:11;;;;;;;10.45;7.43;;;28.60;99.90;;;;;;5186437;28;20052;-71
2023/06/27 11:22:43;;;;;;;8.10;7.25;;;28.60;99.90;;;;;;5186630;28;20032;-71
2023/06/27 11:25:14;;;;;;;7.55;6.75;;;28.80;99.90;;;;;;5186517;28;20663;-71
2023/06/27 11:27:45;;;;;;;8.23;6.55;;;28.90;99.90;;;;;;5186177;28;20040;-72
2023/06/27 11:30:17;;;;;;;9.27;7.15;;;28.80;99.90;;;;;;5186045;28;20497;-72
2023/06/27 11:32:48;;;;;;;7.75;7.00;;;28.80;99.90;;;;;;5186173;28;20021;-72
2023/06/27 11:35:18;;;;;;;8.20;7.40;;;28.90;99.90;;;;;;5185921;28;20100;-71
2023/06/27 11:37:56;;;;;;;6.95;6.25;;;28.90;99.90;;;;;;5186115;28;20474;-71
2023/06/27 11:40:29;;;;;;;7.85;6.72;;;28.90;99.90;;;;;;5185635;28;20030;-71
2023/06/27 11:43:05;;;;;;;7.45;6.70;;;28.90;99.90;;;;;;5186038;28;20076;-71
2023/06/27 11:45:40;;;;;;;8.50;6.60;;;28.90;99.90;;;;;;5186011;28;20057;-71
2023/06/27 11:48:11;;;;;;;8.70;7.35;;;29.00;99.90;;;;;;5184892;28;20125;-71
2023/06/27 11:50:57;;;;;;;9.20;8.15;;;29.10;99.90;;;;;;5185768;28;20116;-72
2023/06/27 11:53:28;;;;;;;8.98;7.85;;;29.00;99.90;;;;;;5185938;28;20394;-72
2023/06/27 11:56:00;;;;;;;8.90;8.20;;;29.20;99.90;;;;;;5185659;28;20034;-71
2023/06/27 11:58:33;;;;;;;8.65;7.82;;;29.10;99.90;;;;;;5185749;28;20493;-72
2023/06/27 12:01:16;;;;;;;12.18;8.70;;;29.10;99.90;;;;;;5185759;28;20030;-72
2023/06/27 12:03:51;;;;;;;10.02;9.13;;;29.00;99.90;;;;;;5185674;28;20037;-71
2023/06/27 12:06:32;;;;;;;10.38;9.45;;;29.10;99.90;;;;;;5185503;28;20018;-71
2023/06/27 12:09:07;;;;;;;9.05;8.35;;;29.10;99.90;;;;;;5185465;28;20033;-72
2023/06/27 12:11:38;;;;;;;10.93;9.48;;;29.10;99.90;;;;;;5185226;28;20029;-72
2023/06/27 12:14:09;;;;;;;11.23;7.72;;;29.10;99.90;;;;;;5185347;28;20037;-72
2023/06/27 12:16:39;;;;;;;9.88;8.98;;;29.20;99.90;;;;;;5185366;28;20083;-71
2023/06/27 12:19:11;;;;;;;7.13;6.22;;;29.10;99.90;;;;;;5185505;28;20030;-71
2023/06/27 12:21:42;;;;;;;7.82;7.07;;;29.00;99.90;;;;;;5185307;28;20387;-71
2023/06/27 12:24:13;;;;;;;8.30;7.50;;;29.20;99.90;;;;;;5185405;28;20126;-71
2023/06/27 12:26:45;;;;;;;12.05;8.77;;;29.20;99.90;;;;;;5185280;28;20137;-71
2023/06/27 12:29:16;;;;;;;7.53;6.82;;;29.10;99.90;;;;;;5185214;28;20374;-71
2023/06/27 12:31:47;;;;;;;8.48;6.45;;;28.90;99.90;;;;;;5185296;28;20037;-72
2023/06/27 12:34:18;;;;;;;9.57;6.57;;;29.20;99.90;;;;;;5185079;28;20026;-72
2023/06/27 12:36:48;;;;;;;7.03;6.32;;;29.10;99.90;;;;;;5185171;28;20034;-71
2023/06/27 12:39:19;;;;;;;9.63;5.93;;;29.30;99.90;;;;;;5185088;28;20034;-72
2023/06/27 12:41:51;;;;;;;6.97;5.82;;;29.40;99.90;;;;;;5185024;28;20197;-71
2023/06/27 12:44:22;;;;;;;10.07;6.18;;;29.10;99.90;;;;;;5185341;28;20045;-72
2023/06/27 12:46:53;;;;;;;7.13;6.43;;;29.20;99.90;;;;;;5185262;28;20018;-71
2023/06/27 12:49:24;;;;;;;7.93;5.80;;;29.40;99.90;;;;;;5185233;28;20080;-72
2023/06/27 12:51:55;;;;;;;5.63;5.13;;;29.30;99.90;;;;;;5185124;28;20492;-72
2023/06/27 12:54:25;;;;;;;5.95;5.35;;;29.30;99.90;;;;;;5185054;28;20138;-72
2023/06/27 12:56:56;;;;;;;7.15;5.30;;;29.30;99.90;;;;;;5185155;28;20458;-72
2023/06/27 12:59:29;;;;;;;7.72;5.20;;;29.30;99.90;;;;;;5185997;28;20030;-71
2023/06/27 13:02:00;;;;;;;9.18;5.32;;;29.40;99.90;;;;;;5189099;28;20053;-71
2023/06/27 13:04:31;;;;;;;6.75;5.97;;;29.40;99.90;;;;;;5189167;28;20030;-71
2023/06/27 13:07:02;;;;;;;6.18;5.55;;;29.40;99.90;;;;;;5188871;28;20014;-72